Time;durP1;ratioP1;P1;durP2;ratioP2;P2;SDS_P1;SDS_P2;PMS_P1;PMS_P2;Temp;Humidity;BMP_temperature;BMP_pressure;BME280_temperature;BME280_humidity;BME280_pressure;Samples;Min_cycle;Max_cycle;Signal;HPM_P1;HPM_P2
2022/09/19 00:01:10;;;;;;;14.60;3.22;;;11.60;99.90;;;;;;4883139;29;20115;-61
2022/09/19 00:03:37;;;;;;;12.70;3.53;;;11.60;99.90;;;;;;4895933;29;20108;-60
2022/09/19 00:06:03;;;;;;;12.95;3.17;;;11.60;99.90;;;;;;4895918;29;20050;-62
2022/09/19 00:08:30;;;;;;;12.30;2.47;;;11.60;99.90;;;;;;4896273;29;20060;-61
2022/09/19 00:10:55;;;;;;;13.18;2.60;;;11.50;99.90;;;;;;4895928;29;20037;-62
2022/09/19 00:13:21;;;;;;;10.98;2.75;;;11.50;99.90;;;;;;4887065;29;20047;-63
2022/09/19 00:15:49;;;;;;;12.52;3.05;;;11.50;99.90;;;;;;4881628;29;20073;-62
2022/09/19 00:18:15;;;;;;;15.50;3.03;;;11.40;99.90;;;;;;4896521;29;20044;-62
2022/09/19 00:20:47;;;;;;;14.85;2.83;;;11.40;99.90;;;;;;4899631;29;20044;-62
2022/09/19 00:26:09;;;;;;;12.32;2.80;;;11.40;99.90;;;;;;4899213;29;20045;-62
2022/09/19 00:28:37;;;;;;;11.60;2.70;;;11.40;99.90;;;;;;4899545;29;20395;-61
2022/09/19 00:31:04;;;;;;;13.25;2.65;;;11.40;99.90;;;;;;4899466;29;20046;-61
2022/09/19 00:33:32;;;;;;;11.50;2.53;;;11.40;99.90;;;;;;4899341;29;20056;-62
2022/09/19 00:35:59;;;;;;;10.95;2.42;;;11.40;99.90;;;;;;4898691;29;20052;-61
2022/09/19 00:38:27;;;;;;;12.50;2.72;;;11.40;99.90;;;;;;4899282;29;20032;-64
2022/09/19 00:40:54;;;;;;;13.23;2.65;;;11.40;99.90;;;;;;4899180;29;20567;-62
2022/09/19 00:43:21;;;;;;;12.70;2.42;;;11.40;99.90;;;;;;4899323;29;20466;-62
2022/09/19 00:45:47;;;;;;;11.88;2.80;;;11.40;99.90;;;;;;4898765;29;20045;-62
2022/09/19 00:48:17;;;;;;;13.75;2.78;;;11.40;99.90;;;;;;4899265;29;20091;-62
2022/09/19 00:50:46;;;;;;;12.90;2.90;;;11.40;99.90;;;;;;4899140;29;20115;-63
2022/09/19 00:53:20;;;;;;;12.32;2.70;;;11.30;99.90;;;;;;4898172;29;20124;-62
2022/09/19 00:55:48;;;;;;;;;;;11.30;99.90;;;;;;4899058;29;20040;-63
2022/09/19 00:58:27;;;;;;;9.13;2.70;;;11.20;99.90;;;;;;4899056;29;19930;-63
2022/09/19 01:00:52;;;;;;;11.68;2.38;;;11.20;99.90;;;;;;4898747;29;20149;-61
2022/09/19 01:03:18;;;;;;;8.27;2.15;;;11.20;99.90;;;;;;4898923;29;20124;-61
2022/09/19 01:06:09;;;;;;;11.20;2.47;;;11.20;99.90;;;;;;4898193;29;20032;-62
2022/09/19 01:08:58;;;;;;;12.73;2.30;;;11.20;99.90;;;;;;4898792;29;20505;-62
2022/09/19 01:11:29;;;;;;;13.85;2.88;;;11.10;99.90;;;;;;4887306;29;20335;-64
2022/09/19 01:14:25;;;;;;;12.77;2.83;;;11.00;99.90;;;;;;4898330;29;20175;-63
2022/09/19 01:16:56;;;;;;;16.38;3.30;;;11.00;99.90;;;;;;4865339;29;20052;-63
2022/09/19 01:19:56;;;;;;;11.93;2.55;;;11.00;99.90;;;;;;4881866;29;20481;-63
2022/09/19 01:22:51;;;;;;;11.18;2.30;;;11.10;99.90;;;;;;4898243;29;20540;-61
2022/09/19 01:25:35;;;;;;;11.20;2.47;;;11.10;99.90;;;;;;4892989;29;20367;-60
2022/09/19 01:28:20;;;;;;;13.48;2.47;;;11.20;99.90;;;;;;4897939;29;20059;-60
2022/09/19 01:31:16;;;;;;;13.63;2.75;;;11.20;99.90;;;;;;4897791;29;20422;-62
2022/09/19 01:34:02;;;;;;;12.63;2.30;;;11.30;99.90;;;;;;4897417;29;20694;-62
2022/09/19 01:36:32;;;;;;;10.43;2.63;;;11.30;99.90;;;;;;4897010;29;20124;-62
2022/09/19 01:39:01;;;;;;;13.82;2.72;;;11.30;99.90;;;;;;4898104;29;20115;-62
2022/09/19 01:41:28;;;;;;;10.07;2.30;;;11.30;99.90;;;;;;4897701;29;20052;-62
2022/09/19 01:43:54;;;;;;;11.60;2.72;;;11.30;99.90;;;;;;4897475;29;20045;-61
2022/09/19 01:46:59;;;;;;;11.07;2.03;;;11.30;99.90;;;;;;4897867;29;20131;-61
2022/09/19 01:49:44;;;;;;;8.65;2.22;;;11.20;99.90;;;;;;4897814;29;20143;-62
2022/09/19 01:52:12;;;;;;;11.70;2.80;;;11.20;99.90;;;;;;4897091;29;20044;-62
2022/09/19 01:55:06;;;;;;;12.63;2.60;;;11.20;99.90;;;;;;4897572;29;20115;-61
2022/09/19 01:57:40;;;;;;;13.02;2.67;;;11.20;99.90;;;;;;4897663;29;20051;-62
2022/09/19 02:00:11;;;;;;;;;;;11.10;99.90;;;;;;4898192;29;20051;-60
2022/09/19 02:02:39;;;;;;;13.13;3.08;;;11.10;99.90;;;;;;4897325;29;20373;-61
2022/09/19 02:05:11;;;;;;;12.27;2.53;;;11.10;99.90;;;;;;4886192;29;20041;-60
2022/09/19 02:07:51;;;;;;;15.40;2.80;;;11.10;99.90;;;;;;4896027;29;20381;-60
2022/09/19 02:10:26;;;;;;;15.95;2.60;;;11.10;99.90;;;;;;4897610;29;20075;-62
2022/09/19 02:12:56;;;;;;;11.60;2.20;;;11.00;99.90;;;;;;4897534;29;20041;-61
2022/09/19 02:15:28;;;;;;;10.73;2.30;;;11.00;99.90;;;;;;4897294;29;20072;-62
2022/09/19 02:18:24;;;;;;;12.73;2.72;;;11.00;99.90;;;;;;4884359;29;20036;-62
2022/09/19 02:20:55;;;;;;;11.80;2.85;;;11.00;99.90;;;;;;4897501;29;20155;-62
2022/09/19 02:23:32;;;;;;;12.45;2.67;;;11.00;99.90;;;;;;4897420;29;20081;-62
2022/09/19 02:25:59;;;;;;;14.18;2.80;;;10.90;99.90;;;;;;4896614;29;20036;-62
2022/09/19 02:28:41;;;;;;;13.68;2.72;;;10.90;99.90;;;;;;4897006;29;20048;-62
2022/09/19 02:31:09;;;;;;;12.18;2.88;;;10.90;99.90;;;;;;4897329;29;20076;-61
2022/09/19 02:33:35;;;;;;;13.23;2.70;;;10.90;99.90;;;;;;4897132;29;20069;-61
2022/09/19 02:36:09;;;;;;;13.77;3.10;;;10.90;99.90;;;;;;4896287;29;20061;-62
2022/09/19 02:38:50;;;;;;;9.70;2.25;;;10.80;99.90;;;;;;4896999;29;20040;-62
2022/09/19 02:41:42;;;;;;;13.00;2.70;;;10.80;99.90;;;;;;4896356;29;20383;-61
2022/09/19 02:44:23;;;;;;;12.20;2.35;;;10.80;99.90;;;;;;4896887;29;20059;-62
2022/09/19 02:47:02;;;;;;;15.73;2.92;;;10.80;99.90;;;;;;4879825;29;20060;-62
2022/09/19 02:49:45;;;;;;;11.50;2.60;;;10.80;99.90;;;;;;4896709;29;20481;-62
2022/09/19 02:52:24;;;;;;;17.17;2.72;;;10.80;99.90;;;;;;4892533;29;20041;-62
2022/09/19 02:54:55;;;;;;;11.43;2.35;;;10.80;99.90;;;;;;4888305;29;20036;-62
2022/09/19 02:57:24;;;;;;;13.30;2.30;;;10.80;99.90;;;;;;4892999;29;20033;-62
2022/09/19 02:59:51;;;;;;;10.07;2.42;;;10.80;99.90;;;;;;4887922;29;20051;-63
2022/09/19 03:02:24;;;;;;;11.73;3.10;;;10.80;99.90;;;;;;4896608;29;20462;-62
2022/09/19 03:05:02;;;;;;;16.60;2.70;;;10.80;99.90;;;;;;4895838;29;20343;-62
2022/09/19 03:07:37;;;;;;;10.55;2.65;;;10.80;99.90;;;;;;4896525;29;20044;-62
2022/09/19 03:10:12;;;;;;;16.83;2.88;;;10.90;99.90;;;;;;4896773;29;20354;-62
2022/09/19 03:12:57;;;;;;;;;;;10.80;99.90;;;;;;4896874;29;20150;-62
2022/09/19 03:15:38;;;;;;;20.13;3.53;;;10.70;99.90;;;;;;4896135;29;19919;-62
2022/09/19 03:18:10;;;;;;;15.10;3.00;;;10.70;99.90;;;;;;4884146;29;20033;-62
2022/09/19 03:20:39;;;;;;;14.20;2.55;;;10.70;99.90;;;;;;4879723;29;20053;-62
2022/09/19 03:23:07;;;;;;;14.38;2.83;;;10.80;99.90;;;;;;4896397;29;20063;-62
2022/09/19 03:25:34;;;;;;;13.43;3.13;;;10.80;99.90;;;;;;4895987;29;20045;-62
2022/09/19 03:28:00;;;;;;;11.38;2.40;;;10.80;99.90;;;;;;4896113;29;20330;-63
2022/09/19 03:30:25;;;;;;;10.63;2.28;;;10.80;99.90;;;;;;4896484;29;20053;-62
2022/09/19 03:32:51;;;;;;;12.32;2.33;;;10.80;99.90;;;;;;4879698;29;20366;-62
2022/09/19 03:35:17;;;;;;;11.73;2.40;;;10.80;99.90;;;;;;4895824;29;20032;-63
2022/09/19 03:37:43;;;;;;;14.18;2.97;;;10.70;99.90;;;;;;4895933;29;20061;-61
2022/09/19 03:40:10;;;;;;;13.23;2.97;;;10.70;99.90;;;;;;4896032;29;20033;-62
2022/09/19 03:42:37;;;;;;;12.63;2.47;;;10.70;99.90;;;;;;4896394;29;20064;-61
2022/09/19 03:45:04;;;;;;;12.68;2.70;;;10.70;99.90;;;;;;4895623;29;20041;-61
2022/09/19 03:47:30;;;;;;;10.80;2.40;;;10.70;99.90;;;;;;4896413;29;20044;-61
2022/09/19 03:49:57;;;;;;;10.55;2.80;;;10.60;99.90;;;;;;4884255;29;20409;-61
2022/09/19 03:52:26;;;;;;;12.88;3.03;;;10.60;99.90;;;;;;4890279;29;20120;-61
2022/09/19 03:54:53;;;;;;;10.45;2.78;;;10.60;99.90;;;;;;4891863;29;20036;-61
2022/09/19 03:57:19;;;;;;;11.98;3.28;;;10.60;99.90;;;;;;4900109;29;20072;-61
2022/09/19 03:59:45;;;;;;;15.13;2.58;;;10.60;99.90;;;;;;4900090;29;20041;-61
2022/09/19 04:02:11;;;;;;;10.85;2.35;;;10.50;99.90;;;;;;4899966;29;20045;-61
2022/09/19 04:04:38;;;;;;;15.52;3.03;;;10.50;99.90;;;;;;4883079;29;20383;-61
2022/09/19 04:07:04;;;;;;;10.48;2.65;;;10.60;99.90;;;;;;4899729;29;20059;-61
2022/09/19 04:09:31;;;;;;;14.55;2.75;;;10.60;99.90;;;;;;4899797;29;20104;-60
2022/09/19 04:11:58;;;;;;;13.15;2.63;;;10.60;99.90;;;;;;4888179;29;20056;-62
2022/09/19 04:14:24;;;;;;;16.35;3.08;;;10.60;99.90;;;;;;4881515;29;20044;-61
2022/09/19 04:16:50;;;;;;;19.70;3.30;;;10.60;99.90;;;;;;4899524;29;20036;-62
2022/09/19 04:19:16;;;;;;;14.00;2.80;;;10.40;99.90;;;;;;4899512;29;20501;-62
2022/09/19 04:21:42;;;;;;;12.57;2.72;;;10.50;99.90;;;;;;4899819;29;20119;-61
2022/09/19 04:24:12;;;;;;;10.68;2.55;;;10.60;99.90;;;;;;4899085;29;20045;-61
2022/09/19 04:26:41;;;;;;;12.80;2.60;;;10.50;99.90;;;;;;4882654;29;20326;-61
2022/09/19 04:29:07;;;;;;;15.95;2.80;;;10.50;99.90;;;;;;4899418;29;20119;-61
2022/09/19 04:31:39;;;;;;;15.13;2.63;;;10.50;99.90;;;;;;4899400;29;20068;-62
2022/09/19 04:34:06;;;;;;;9.57;2.28;;;10.50;99.90;;;;;;4897748;29;20032;-63
2022/09/19 04:36:33;;;;;;;14.88;2.90;;;10.40;99.90;;;;;;4895320;29;20099;-63
2022/09/19 04:39:03;;;;;;;14.95;3.15;;;10.40;99.90;;;;;;4898131;29;20068;-62
2022/09/19 04:41:36;;;;;;;12.73;2.67;;;10.40;99.90;;;;;;4898092;29;20556;-61
2022/09/19 04:44:04;;;;;;;17.92;2.95;;;10.40;99.90;;;;;;4894752;29;20073;-63
2022/09/19 04:46:32;;;;;;;12.02;2.40;;;10.30;99.90;;;;;;4895140;29;20403;-61
2022/09/19 04:48:58;;;;;;;13.50;2.38;;;10.30;99.90;;;;;;4898100;29;20044;-61
2022/09/19 04:51:24;;;;;;;11.95;2.72;;;10.30;99.90;;;;;;4880536;29;20682;-61
2022/09/19 04:53:51;;;;;;;13.20;2.50;;;10.20;99.90;;;;;;4898336;29;20036;-63
2022/09/19 04:56:18;;;;;;;10.40;2.33;;;10.20;99.90;;;;;;4896905;29;20068;-62
2022/09/19 04:58:46;;;;;;;11.00;2.40;;;10.20;99.90;;;;;;4898594;29;20036;-62
2022/09/19 05:01:14;;;;;;;15.32;2.60;;;10.10;99.90;;;;;;4898077;29;20044;-62
2022/09/19 05:03:43;;;;;;;11.35;2.70;;;10.20;99.90;;;;;;4898286;29;20036;-63
2022/09/19 05:06:09;;;;;;;11.13;2.67;;;10.10;99.90;;;;;;4877401;29;20044;-62
2022/09/19 05:08:34;;;;;;;13.32;2.83;;;10.20;99.90;;;;;;4897478;29;20051;-61
2022/09/19 05:11:02;;;;;;;16.10;3.17;;;10.20;99.90;;;;;;4897325;29;20052;-60
2022/09/19 05:13:30;;;;;;;9.27;1.95;;;10.20;99.90;;;;;;4898289;29;20044;-61
2022/09/19 05:15:56;;;;;;;9.30;2.67;;;10.20;99.90;;;;;;4881874;29;20075;-62
2022/09/19 05:18:23;;;;;;;11.95;2.67;;;10.20;99.90;;;;;;4894220;29;20028;-62
2022/09/19 05:20:52;;;;;;;13.23;2.72;;;10.20;99.90;;;;;;4875695;29;20508;-62
2022/09/19 05:23:20;;;;;;;10.18;2.42;;;10.20;99.90;;;;;;4897928;29;20043;-65
2022/09/19 05:25:46;;;;;;;8.23;2.42;;;10.10;99.90;;;;;;4882006;29;20044;-71
2022/09/19 05:28:11;;;;;;;11.68;2.42;;;10.20;99.90;;;;;;4897094;29;20111;-62
2022/09/19 05:30:44;;;;;;;10.38;2.78;;;10.20;99.90;;;;;;4895426;29;20448;-61
2022/09/19 05:33:11;;;;;;;9.35;2.30;;;10.20;99.90;;;;;;4892303;29;20041;-61
2022/09/19 05:35:37;;;;;;;10.48;2.80;;;10.10;99.90;;;;;;4894517;29;20056;-61
2022/09/19 05:38:03;;;;;;;10.48;2.42;;;10.20;99.90;;;;;;4897036;29;20045;-61
2022/09/19 05:40:29;;;;;;;12.15;2.25;;;10.20;99.90;;;;;;4893930;29;20044;-62
2022/09/19 05:42:59;;;;;;;12.55;2.47;;;10.20;99.90;;;;;;4878094;29;20359;-62
2022/09/19 05:45:25;;;;;;;11.18;2.25;;;10.20;99.90;;;;;;4895676;29;20074;-62
2022/09/19 05:47:51;;;;;;;11.50;2.30;;;10.20;99.90;;;;;;4893355;29;20045;-61
2022/09/19 05:50:16;;;;;;;15.20;2.60;;;10.20;99.90;;;;;;4885740;29;20040;-62
2022/09/19 05:55:28;;;;;;;11.82;2.20;;;10.30;99.90;;;;;;4889905;29;20045;-62
2022/09/19 05:57:56;;;;;;;17.75;2.75;;;10.20;99.90;;;;;;4893298;29;20351;-62
2022/09/19 06:00:25;;;;;;;11.32;2.10;;;10.30;99.90;;;;;;4889496;29;20477;-62
2022/09/19 06:03:00;;;;;;;12.52;2.65;;;10.30;99.90;;;;;;4896470;29;20438;-62
2022/09/19 06:05:26;;;;;;;8.85;2.45;;;10.40;99.90;;;;;;4879931;29;20075;-61
2022/09/19 06:07:52;;;;;;;8.98;2.20;;;10.50;99.90;;;;;;4886280;29;20123;-62
2022/09/19 06:10:18;;;;;;;10.32;2.45;;;10.70;99.90;;;;;;4895248;29;20041;-62
2022/09/19 06:12:45;;;;;;;11.40;2.53;;;11.00;99.90;;;;;;4879526;29;20068;-62
2022/09/19 06:15:13;;;;;;;11.52;2.20;;;11.40;99.90;;;;;;4880729;29;20813;-64
2022/09/19 06:17:39;;;;;;;11.90;2.70;;;11.90;99.90;;;;;;4861883;29;20049;-63
2022/09/19 06:20:05;;;;;;;10.60;2.85;;;12.40;99.90;;;;;;4895863;29;20501;-66
2022/09/19 06:22:30;;;;;;;10.43;2.40;;;12.70;99.90;;;;;;4879984;29;20423;-63
2022/09/19 06:24:56;;;;;;;9.18;2.00;;;13.00;99.90;;;;;;4892459;29;20059;-63
2022/09/19 06:27:22;;;;;;;10.57;2.33;;;13.20;99.90;;;;;;4896070;29;20063;-61
2022/09/19 06:29:48;;;;;;;10.88;2.28;;;13.50;99.90;;;;;;4880228;29;20044;-61
2022/09/19 06:32:13;;;;;;;11.63;2.38;;;13.80;99.90;;;;;;4897291;29;20067;-62
2022/09/19 06:34:39;;;;;;;11.55;2.63;;;13.90;99.90;;;;;;4896608;29;20041;-62
2022/09/19 06:37:04;;;;;;;10.20;2.30;;;14.00;99.90;;;;;;4896507;29;20144;-62
2022/09/19 06:39:30;;;;;;;11.35;2.50;;;14.10;99.90;;;;;;4894716;29;20076;-62
2022/09/19 06:41:56;;;;;;;8.50;2.33;;;14.20;99.90;;;;;;4895358;29;20486;-62
2022/09/19 06:44:22;;;;;;;10.27;2.60;;;14.30;99.90;;;;;;4895443;29;20055;-62
2022/09/19 06:46:48;;;;;;;12.15;2.42;;;14.10;99.90;;;;;;4885112;29;20040;-62
2022/09/19 06:49:14;;;;;;;7.72;2.30;;;14.00;99.90;;;;;;4890874;29;20041;-62
2022/09/19 06:51:39;;;;;;;9.38;2.30;;;13.70;99.90;;;;;;4879560;29;20053;-62
2022/09/19 06:54:05;;;;;;;10.18;2.50;;;13.50;99.90;;;;;;4882172;29;20044;-63
2022/09/19 06:56:31;;;;;;;11.15;2.20;;;13.40;99.90;;;;;;4886297;29;20116;-62
2022/09/19 06:58:56;;;;;;;12.40;2.30;;;13.40;99.90;;;;;;4887142;29;20490;-61
2022/09/19 07:01:22;;;;;;;8.35;2.05;;;13.30;99.90;;;;;;4887603;29;20044;-62
2022/09/19 07:03:48;;;;;;;10.75;2.65;;;13.20;99.90;;;;;;4878713;29;20044;-62
2022/09/19 07:06:14;;;;;;;12.15;2.38;;;13.20;99.90;;;;;;4889526;29;20096;-62
2022/09/19 07:08:40;;;;;;;9.52;2.25;;;13.20;99.90;;;;;;4877794;29;20045;-61
2022/09/19 07:11:05;;;;;;;10.68;2.28;;;13.20;99.90;;;;;;4878324;29;20473;-63
2022/09/19 07:13:31;;;;;;;11.85;2.20;;;13.30;99.90;;;;;;4877988;29;20076;-62
2022/09/19 07:16:02;;;;;;;13.57;2.50;;;13.40;99.90;;;;;;4890907;29;20044;-61
2022/09/19 07:18:28;;;;;;;10.38;2.17;;;13.40;99.90;;;;;;4877975;29;20049;-62
2022/09/19 07:20:54;;;;;;;10.48;2.35;;;13.40;99.90;;;;;;4877840;29;20044;-62
2022/09/19 07:23:20;;;;;;;8.27;1.80;;;13.50;99.90;;;;;;4883703;29;20468;-61
2022/09/19 07:25:46;;;;;;;11.15;2.35;;;13.60;99.90;;;;;;4893384;29;20454;-62
2022/09/19 07:28:14;;;;;;;8.52;2.25;;;13.60;99.90;;;;;;4897932;29;20048;-62
2022/09/19 07:30:43;;;;;;;12.50;2.60;;;13.70;99.90;;;;;;4883689;29;20805;-63
2022/09/19 07:33:11;;;;;;;10.57;1.80;;;13.80;99.90;;;;;;4874624;29;20059;-62
2022/09/19 07:35:41;;;;;;;6.88;1.92;;;13.90;99.90;;;;;;4899181;29;20458;-62
2022/09/19 07:38:10;;;;;;;10.43;2.30;;;13.90;99.90;;;;;;4899926;29;20048;-62
2022/09/19 07:40:37;;;;;;;8.63;2.25;;;14.10;99.90;;;;;;4887835;29;20047;-62
2022/09/19 07:43:04;;;;;;;8.55;1.92;;;14.10;99.90;;;;;;4899085;29;20076;-62
2022/09/19 07:45:32;;;;;;;9.02;1.90;;;14.20;99.90;;;;;;4898682;29;20675;-62
2022/09/19 07:47:58;;;;;;;9.70;2.15;;;14.30;99.90;;;;;;4899440;29;20040;-63
2022/09/19 07:50:24;;;;;;;11.05;2.20;;;14.30;99.90;;;;;;4899388;29;20059;-62
2022/09/19 07:53:09;;;;;;;7.57;2.38;;;14.40;99.90;;;;;;4899961;29;20036;-62
2022/09/19 07:55:35;;;;;;;13.27;2.20;;;14.50;99.90;;;;;;4899771;29;20060;-62
2022/09/19 07:58:03;;;;;;;7.93;1.85;;;14.50;99.90;;;;;;4899788;29;20131;-63
2022/09/19 08:00:30;;;;;;;9.70;1.92;;;14.60;99.90;;;;;;4899870;29;20112;-61
2022/09/19 08:03:05;;;;;;;9.45;2.05;;;14.60;99.90;;;;;;4883422;29;20104;-61
2022/09/19 08:05:39;;;;;;;9.88;2.33;;;14.70;99.90;;;;;;4899511;29;20044;-62
2022/09/19 08:08:06;;;;;;;8.87;2.10;;;14.80;99.90;;;;;;4882924;29;20044;-62
2022/09/19 08:10:32;;;;;;;8.88;3.15;;;14.80;99.90;;;;;;4899442;29;20447;-62
2022/09/19 08:13:05;;;;;;;8.38;2.00;;;14.90;99.90;;;;;;4899747;29;20044;-61
2022/09/19 08:15:33;;;;;;;11.25;3.00;;;14.90;99.90;;;;;;4898153;29;20104;-62
2022/09/19 08:18:04;;;;;;;12.45;2.72;;;15.00;99.90;;;;;;4893606;29;20091;-62
2022/09/19 08:20:32;;;;;;;17.55;4.60;;;15.10;99.90;;;;;;4889516;29;20041;-62
2022/09/19 08:23:12;;;;;;;12.20;2.38;;;15.10;99.90;;;;;;4892777;29;20088;-61
2022/09/19 08:25:39;;;;;;;12.20;2.40;;;15.20;99.90;;;;;;4882631;29;20686;-62
2022/09/19 08:28:05;;;;;;;6.57;1.60;;;15.20;99.90;;;;;;4896858;29;20040;-62
2022/09/19 08:30:33;;;;;;;10.50;2.50;;;15.30;99.90;;;;;;4899058;29;20111;-63
2022/09/19 08:33:00;;;;;;;10.32;2.10;;;15.40;99.90;;;;;;4879775;29;20462;-62
2022/09/19 08:35:27;;;;;;;11.43;2.50;;;15.40;99.90;;;;;;4893577;29;20044;-62
2022/09/19 08:38:03;;;;;;;8.88;1.98;;;15.50;99.90;;;;;;4889677;29;20084;-62
2022/09/19 08:40:32;;;;;;;7.22;1.90;;;15.50;99.90;;;;;;4891831;29;20052;-62
2022/09/19 08:43:16;;;;;;;10.43;2.85;;;15.60;99.90;;;;;;4890598;29;20044;-62
2022/09/19 08:46:14;;;;;;;10.18;2.70;;;15.70;99.90;;;;;;4888496;29;20374;-62
2022/09/19 08:49:09;;;;;;;11.10;2.63;;;15.70;99.90;;;;;;4889937;29;20045;-62
2022/09/19 08:51:57;;;;;;;12.90;2.75;;;15.70;99.90;;;;;;4889670;29;20057;-62
2022/09/19 08:54:35;;;;;;;10.13;2.45;;;15.80;99.90;;;;;;4887290;29;20174;-62
2022/09/19 08:57:03;;;;;;;8.27;2.25;;;15.70;99.90;;;;;;4889046;29;20083;-62
2022/09/19 08:59:39;;;;;;;9.93;2.25;;;15.80;99.90;;;;;;4893134;29;20111;-63
2022/09/19 09:02:22;;;;;;;11.63;2.45;;;15.90;99.90;;;;;;4888635;29;20037;-62
2022/09/19 09:04:47;;;;;;;12.57;2.70;;;15.90;99.90;;;;;;4892208;29;20044;-62
2022/09/19 09:07:24;;;;;;;9.93;2.50;;;15.90;99.90;;;;;;4888571;29;20048;-62
2022/09/19 09:10:07;;;;;;;8.00;2.60;;;16.00;99.90;;;;;;4875942;29;20080;-62
2022/09/19 09:12:59;;;;;;;12.63;2.58;;;16.10;99.90;;;;;;4894701;29;20040;-63
2022/09/19 09:15:34;;;;;;;13.55;2.85;;;16.10;99.90;;;;;;4885619;29;20073;-62
2022/09/19 09:18:30;;;;;;;11.70;2.75;;;16.10;99.90;;;;;;4885430;29;20073;-62
2022/09/19 09:21:08;;;;;;;13.02;3.78;;;16.20;99.90;;;;;;4887331;29;20436;-62
2022/09/19 09:23:40;;;;;;;10.73;2.65;;;16.20;99.90;;;;;;4887328;29;20045;-63
2022/09/19 09:26:15;;;;;;;14.88;3.33;;;16.40;99.90;;;;;;4888447;29;20048;-63
2022/09/19 09:28:43;;;;;;;10.15;1.80;;;16.50;99.90;;;;;;4898188;29;20037;-63
2022/09/19 09:31:24;;;;;;;10.68;2.60;;;16.60;99.90;;;;;;4881780;29;20620;-63
2022/09/19 09:34:02;;;;;;;9.63;2.30;;;16.70;99.90;;;;;;4890046;29;20044;-63
2022/09/19 09:36:42;;;;;;;11.90;2.47;;;16.80;99.90;;;;;;4886356;29;20056;-62
2022/09/19 09:39:31;;;;;;;13.65;2.67;;;16.90;99.90;;;;;;4886595;29;20112;-63
2022/09/19 09:42:02;;;;;;;12.13;2.55;;;17.00;99.90;;;;;;4897936;29;20048;-63
2022/09/19 09:44:52;;;;;;;9.48;2.17;;;17.00;99.90;;;;;;4898183;29;21105;-63
2022/09/19 09:47:39;;;;;;;10.55;2.55;;;17.00;99.90;;;;;;4881485;29;20048;-63
2022/09/19 09:50:31;;;;;;;9.40;2.70;;;16.90;99.90;;;;;;4898022;29;20390;-63
2022/09/19 09:53:26;;;;;;;12.00;3.35;;;16.70;99.90;;;;;;4897864;29;20052;-63
2022/09/19 09:56:15;;;;;;;10.07;2.25;;;16.70;99.90;;;;;;4897561;29;20131;-62
2022/09/19 09:59:02;;;;;;;9.50;1.90;;;16.70;99.90;;;;;;4897514;29;20048;-63
2022/09/19 10:04:55;;;;;;;11.85;2.78;;;16.00;99.90;;;;;;4885747;29;20376;-63
2022/09/19 10:07:38;;;;;;;9.77;2.20;;;14.30;99.90;;;;;;4897488;29;20190;-62
2022/09/19 10:10:19;;;;;;;12.13;2.88;;;13.70;99.90;;;;;;4897885;29;20469;-61
2022/09/19 10:12:57;;;;;;;13.30;2.28;;;13.60;99.90;;;;;;4897244;29;20467;-61
2022/09/19 10:15:24;;;;;;;10.32;2.38;;;13.60;99.90;;;;;;4897236;29;20408;-61
2022/09/19 10:18:04;;;;;;;10.52;2.15;;;13.70;99.90;;;;;;4897025;29;20346;-61
2022/09/19 10:20:49;;;;;;;7.97;2.55;;;13.90;99.90;;;;;;4881010;29;20124;-61
2022/09/19 10:23:18;;;;;;;9.70;2.95;;;14.20;99.90;;;;;;4897391;29;20624;-62
2022/09/19 10:25:48;;;;;;;9.85;2.40;;;14.30;99.90;;;;;;4897134;29;20324;-61
2022/09/19 10:28:30;;;;;;;6.13;2.17;;;14.40;99.90;;;;;;4893620;29;20299;-61
2022/09/19 10:30:58;;;;;;;7.10;1.80;;;14.50;99.90;;;;;;4896938;29;20351;-61
2022/09/19 10:33:45;;;;;;;7.20;1.65;;;14.50;99.90;;;;;;4888595;29;20048;-61
2022/09/19 10:36:25;;;;;;;8.02;1.80;;;14.50;99.90;;;;;;4886007;29;20104;-61
2022/09/19 10:38:59;;;;;;;7.20;1.80;;;14.50;99.90;;;;;;4896089;29;20037;-61
2022/09/19 10:41:31;;;;;;;9.35;1.90;;;14.50;99.90;;;;;;4880260;29;20052;-61
2022/09/19 10:44:06;;;;;;;8.95;2.17;;;14.60;99.90;;;;;;4891686;29;20055;-61
2022/09/19 10:46:43;;;;;;;9.15;2.45;;;14.70;99.90;;;;;;4895034;29;20135;-61
2022/09/19 10:49:37;;;;;;;9.32;2.55;;;14.80;99.90;;;;;;4894021;29;20044;-61
2022/09/19 10:52:04;;;;;;;10.43;2.45;;;14.80;99.90;;;;;;4894552;29;20048;-61
2022/09/19 10:54:40;;;;;;;10.48;2.10;;;14.80;99.90;;;;;;4894727;29;20051;-61
2022/09/19 10:57:45;;;;;;;9.43;2.30;;;14.70;99.90;;;;;;4894741;29;20043;-63
2022/09/19 11:00:51;;;;;;;9.38;2.28;;;14.60;99.90;;;;;;4880447;29;20660;-61
2022/09/19 11:03:25;;;;;;;15.32;2.40;;;14.70;99.90;;;;;;4855195;29;20623;-61
2022/09/19 11:06:10;;;;;;;;;;;14.80;99.90;;;;;;4887754;29;20063;-61
2022/09/19 11:08:44;;;;;;;8.15;1.95;;;14.60;99.90;;;;;;4893607;29;19919;-61
2022/09/19 11:11:40;;;;;;;5.88;1.30;;;14.40;99.90;;;;;;4894820;29;20341;-60
2022/09/19 11:14:12;;;;;;;4.95;1.48;;;14.10;99.90;;;;;;4894609;29;20056;-60
2022/09/19 11:16:55;;;;;;;6.18;2.22;;;13.90;99.90;;;;;;4893564;29;20568;-60
2022/09/19 11:19:53;;;;;;;5.22;1.40;;;13.90;99.90;;;;;;4894129;29;20434;-60
2022/09/19 11:22:21;;;;;;;7.57;1.77;;;13.90;99.90;;;;;;4865270;29;20052;-60
2022/09/19 11:24:57;;;;;;;7.18;1.52;;;13.90;99.90;;;;;;4894614;29;20045;-61
2022/09/19 11:27:41;;;;;;;4.97;1.67;;;13.90;99.90;;;;;;4894217;29;20446;-60
2022/09/19 11:30:16;;;;;;;5.63;1.55;;;13.90;99.90;;;;;;4894848;29;20063;-61
2022/09/19 11:33:20;;;;;;;7.13;1.50;;;13.90;99.90;;;;;;4893931;29;20343;-61
2022/09/19 11:36:10;;;;;;;5.68;1.77;;;14.00;99.90;;;;;;4885510;29;20049;-61
2022/09/19 11:38:39;;;;;;;5.40;1.50;;;14.00;99.90;;;;;;4893953;29;20036;-60
2022/09/19 11:41:13;;;;;;;4.25;1.40;;;13.80;99.90;;;;;;4894568;29;20132;-61
2022/09/19 11:44:10;;;;;;;6.65;1.90;;;13.70;99.90;;;;;;4894794;29;20048;-61
2022/09/19 11:47:16;;;;;;;5.93;1.70;;;13.50;99.90;;;;;;4894627;29;20104;-61
2022/09/19 11:49:51;;;;;;;5.05;1.40;;;13.40;99.90;;;;;;4890531;29;20056;-61
2022/09/19 11:52:33;;;;;;;6.03;1.45;;;13.30;99.90;;;;;;4894577;29;20052;-61
2022/09/19 11:54:59;;;;;;;6.28;1.30;;;13.40;99.90;;;;;;4894414;29;20351;-61
2022/09/19 11:57:59;;;;;;;5.25;1.42;;;13.40;99.90;;;;;;4894267;29;20044;-60
2022/09/19 12:00:26;;;;;;;6.60;1.75;;;13.50;99.90;;;;;;4877646;29;20044;-60
2022/09/19 12:03:14;;;;;;;5.75;1.50;;;13.70;99.90;;;;;;4894633;29;20071;-61
2022/09/19 12:05:50;;;;;;;8.57;1.80;;;13.90;99.90;;;;;;4894371;29;20134;-61
2022/09/19 12:08:39;;;;;;;9.25;2.15;;;14.20;99.90;;;;;;4890988;29;20055;-61
2022/09/19 12:11:14;;;;;;;10.57;2.00;;;14.40;99.90;;;;;;4891978;29;20139;-61
2022/09/19 12:13:59;;;;;;;13.98;3.00;;;14.60;99.90;;;;;;4895747;29;20060;-61
2022/09/19 12:16:38;;;;;;;10.10;2.20;;;14.70;99.90;;;;;;4897586;29;20059;-61
2022/09/19 12:19:51;;;;;;;10.07;2.55;;;15.00;99.90;;;;;;4897248;29;20087;-61
2022/09/19 12:22:23;;;;;;;8.77;1.85;;;15.00;99.90;;;;;;4891889;29;20530;-62
2022/09/19 12:24:58;;;;;;;8.20;2.75;;;15.00;99.90;;;;;;4884815;29;20048;-61
2022/09/19 12:27:43;;;;;;;10.55;3.00;;;15.00;99.90;;;;;;4877675;29;20079;-61
2022/09/19 12:30:23;;;;;;;15.13;3.75;;;14.80;99.90;;;;;;4897986;29;20049;-61
2022/09/19 12:32:59;;;;;;;11.90;3.28;;;14.80;99.90;;;;;;4898290;29;20111;-62
2022/09/19 12:36:05;;;;;;;13.10;4.15;;;14.90;99.90;;;;;;4897785;29;20111;-61
2022/09/19 12:38:56;;;;;;;9.05;2.60;;;14.90;99.90;;;;;;4851524;29;20183;-62
2022/09/19 12:41:40;;;;;;;11.45;2.63;;;15.10;99.90;;;;;;4879432;29;20181;-62
2022/09/19 12:44:13;;;;;;;13.32;2.95;;;15.30;99.90;;;;;;4867071;29;20051;-62
2022/09/19 12:47:04;;;;;;;8.20;2.30;;;15.50;99.90;;;;;;4879080;29;20624;-62
2022/09/19 12:49:38;;;;;;;9.40;2.08;;;15.90;99.90;;;;;;4868847;29;20065;-62
2022/09/19 12:52:30;;;;;;;8.82;2.63;;;16.10;99.90;;;;;;4878625;29;20165;-62
2022/09/19 12:55:16;;;;;;;6.63;2.13;;;16.20;99.90;;;;;;4862039;29;20089;-61
2022/09/19 12:58:09;;;;;;;8.02;1.70;;;16.40;99.90;;;;;;4849975;29;20375;-60
2022/09/19 13:00:42;;;;;;;8.43;2.05;;;16.40;99.90;;;;;;4878938;29;20037;-63
2022/09/19 13:03:20;;;;;;;6.18;1.70;;;16.50;99.90;;;;;;4878751;29;20041;-61
2022/09/19 13:05:59;;;;;;;17.63;2.83;;;16.50;99.90;;;;;;4878358;29;20476;-61
2022/09/19 13:08:43;;;;;;;11.20;2.47;;;16.50;99.90;;;;;;4878619;29;20041;-61
2022/09/19 13:11:20;;;;;;;11.52;2.88;;;16.60;99.90;;;;;;4878754;29;20045;-61
2022/09/19 13:13:51;;;;;;;11.80;2.65;;;16.70;99.90;;;;;;4878851;29;20135;-61
2022/09/19 13:16:20;;;;;;;12.05;2.72;;;16.60;99.90;;;;;;4878255;29;20127;-61
2022/09/19 13:24:41;;;;;;;11.27;2.40;;;16.20;99.90;;;;;;4878180;29;20037;-62
2022/09/19 13:27:07;;;;;;;9.50;2.00;;;16.10;99.90;;;;;;4877900;29;20097;-61
2022/09/19 13:29:36;;;;;;;16.45;3.35;;;16.10;99.90;;;;;;4861937;29;20436;-62